Velkommen til

Stord Flyklubb

Om oss

Historien til Stord Flyklubb

Klubbens aner strekker seg tilbake til 1969 med sjøfly. Siden har vi sett vanlige motorfly og glidefly, men det er sportsfly som er hovedfokuset i dag

En kilometer vei vil ta deg en kilometer

En kilometer rullebane vil ta deg hvor enn du vil

Bli pilot

Alle kan lære å fly!

Ta en prøvetur hos oss og se hvor moro det er! Prøveturen gir deg en mulighet til å se om dette er noe du har lyst til å gå videre med.

Teorien tas av de fleste som hjemmeundervisning. Nytt læremateriell gjør opplæringen både enklere og mer strømlinjeformet.

Praksis kan påbegynnes mens man tar teorien, men teorien må være bestått før man kan fly solo. 

METAR Haugesund
ENHD 090650Z AUTO 13016KT 9999 BKN030/// OVC040/// 10/05 Q0995 ENHD 090620Z AUTO 13018KT 9999 OVC028/// 09/04 Q0995 ENHD 090550Z AUTO 13019KT 9999 FEW030/// OVC041/// 09/04 Q0995 ENHD 090520Z AUTO 12017KT 9999 BKN029/// OVC042/// 09/04 Q0995 ENHD 090450Z AUTO 13015KT 9999 OVC030/// 08/03 Q0995 ENHD 090420Z AUTO 11015KT 9999 OVC033/// 08/03 Q0995
METAR Flesland
ENBR 090650Z VRB03KT 9999 -RA FEW017 SCT023 BKN031 06/04 Q0996 NOSIG RMK WIND 1200FT 09006KT ENBR 090620Z VRB03KT 9999 -RA FEW017 BKN032 06/04 Q0996 NOSIG RMK WIND 1200FT 09007KT ENBR 090550Z 09003KT 9999 -RA FEW016 BKN035 06/03 Q0997 NOSIG RMK WIND 1200FT 10011G22KT ENBR 090520Z 08006KT 040V110 9999 -RA SCT020 BKN032 06/02 Q0997 NOSIG RMK WIND 1200FT 10008KT ENBR 090450Z VRB03KT 9999 -RA FEW020 BKN040 06/02 Q0997 NOSIG RMK WIND 1200FT 09006KT ENBR 090420Z VRB03KT 9999 -RA FEW020 SCT040 BKN060 06/01 Q0998 RMK WIND 1200FT 08008KT TAF ENBR 0906/1006 VRB05KT 9999 -RA FEW020 BKN040 BECMG 0910/0911 15010KT TEMPO 0914/0920 RA TEMPO 0920/1003 RA BKN008 BECMG 1000/1002 09008KT